createdAt,value
2024-02-03T00:02:23.408Z,85.60
2024-02-03T00:04:51.921Z,78.20
2024-02-03T00:07:20.281Z,75.20
2024-02-03T00:09:49.282Z,82.20
2024-02-03T00:12:20.848Z,82.10
2024-02-03T00:14:52.154Z,71.70
2024-02-03T00:17:20.743Z,64.90
2024-02-03T00:19:49.246Z,72.90
2024-02-03T00:22:18.082Z,70.20
2024-02-03T00:24:47.419Z,70.50
2024-02-03T00:27:16.435Z,75.50
2024-02-03T00:29:44.615Z,79.10
2024-02-03T00:32:12.951Z,80.20
2024-02-03T00:34:45.745Z,70.40
2024-02-03T00:37:14.416Z,69.40
2024-02-03T00:39:43.763Z,67.00
2024-02-03T00:44:41.078Z,80.10
2024-02-03T00:47:09.382Z,74.60
2024-02-03T00:49:37.955Z,73.90
2024-02-03T00:52:06.907Z,67.50
2024-02-03T00:54:35.335Z,74.10
2024-02-03T00:57:04.150Z,64.20
2024-02-03T00:59:32.375Z,67.90
2024-02-03T01:02:00.524Z,65.30
2024-02-03T01:04:28.756Z,66.20
2024-02-03T01:06:58.764Z,76.50
2024-02-03T01:09:27.218Z,72.60
2024-02-03T01:11:56.299Z,71.50
2024-02-03T01:14:24.916Z,75.90
2024-02-03T01:16:53.434Z,76.90
2024-02-03T01:19:22.011Z,79.60
2024-02-03T01:21:50.466Z,90.30
2024-02-03T01:24:18.917Z,72.20
2024-02-03T01:26:47.590Z,76.90
2024-02-03T01:29:16.027Z,77.60
2024-02-03T01:31:44.134Z,74.60
2024-02-03T01:34:12.610Z,72.30
2024-02-03T01:36:41.341Z,77.40
2024-02-03T01:39:11.340Z,86.20
2024-02-03T01:41:39.582Z,75.40
2024-02-03T01:44:07.989Z,76.50
2024-02-03T01:46:37.042Z,76.70
2024-02-03T01:51:35.444Z,68.60
2024-02-03T01:54:04.461Z,72.80
2024-02-03T01:56:37.250Z,74.30
2024-02-03T01:59:05.513Z,67.30
2024-02-03T02:01:34.045Z,84.60
2024-02-03T02:04:02.479Z,66.10
2024-02-03T02:06:31.443Z,74.50
2024-02-03T02:08:59.954Z,71.90
2024-02-03T02:11:29.063Z,73.80
2024-02-03T02:13:57.380Z,80.40
2024-02-03T02:16:26.203Z,81.50
2024-02-03T02:18:54.643Z,77.90
2024-02-03T02:21:23.016Z,72.80
2024-02-03T02:23:51.347Z,88.10
2024-02-03T02:26:19.770Z,80.00
2024-02-03T02:28:47.944Z,76.30
2024-02-03T02:31:16.426Z,70.20
2024-02-03T02:33:44.736Z,69.30
2024-02-03T02:36:13.031Z,79.00
2024-02-03T02:38:41.116Z,66.90
2024-02-03T02:41:12.646Z,69.10
2024-02-03T02:43:41.118Z,68.60
2024-02-03T02:46:09.406Z,68.30
2024-02-03T02:48:37.758Z,82.40
2024-02-03T02:51:06.033Z,69.10
2024-02-03T02:53:34.382Z,74.00
2024-02-03T02:56:02.477Z,66.50
2024-02-03T02:58:30.840Z,72.30
2024-02-03T03:00:59.134Z,71.70
2024-02-03T03:03:27.622Z,75.10
2024-02-03T03:05:58.637Z,68.30
2024-02-03T03:08:27.175Z,71.20
2024-02-03T03:10:55.385Z,63.80
2024-02-03T03:13:23.416Z,72.20
2024-02-03T03:15:51.936Z,69.70
2024-02-03T03:18:20.284Z,74.20
2024-02-03T03:20:48.782Z,64.20
2024-02-03T03:23:17.088Z,73.20
2024-02-03T03:25:45.256Z,67.30
2024-02-03T03:28:13.438Z,64.80
2024-02-03T03:30:41.561Z,63.70
2024-02-03T03:33:10.198Z,76.30
2024-02-03T03:35:38.552Z,70.80
2024-02-03T03:38:08.086Z,68.80
2024-02-03T03:40:36.280Z,66.20
2024-02-03T03:43:08.204Z,75.10
2024-02-03T03:45:36.736Z,71.50
2024-02-03T03:48:05.436Z,70.90
2024-02-03T03:50:33.644Z,65.40
2024-02-03T03:53:01.744Z,73.20
2024-02-03T03:55:30.420Z,73.30
2024-02-03T03:57:58.563Z,63.00
2024-02-03T04:00:26.970Z,66.60
2024-02-03T04:02:55.437Z,68.20
2024-02-03T04:05:23.757Z,70.30
2024-02-03T04:07:52.171Z,64.70
2024-02-03T04:10:20.681Z,78.10
2024-02-03T04:12:49.072Z,68.10
2024-02-03T04:15:17.462Z,64.80
2024-02-03T04:17:45.773Z,65.50
2024-02-03T04:20:14.127Z,66.10
2024-02-03T04:22:42.614Z,70.10
2024-02-03T04:25:10.736Z,58.70
2024-02-03T04:27:39.005Z,55.40
2024-02-03T04:30:21.964Z,56.10
2024-02-03T04:32:55.978Z,59.30
2024-02-03T04:35:24.603Z,58.20
2024-02-03T04:37:52.711Z,57.10
2024-02-03T04:40:21.019Z,53.80
2024-02-03T04:42:49.434Z,60.50
2024-02-03T04:45:17.931Z,65.90
2024-02-03T04:47:46.579Z,60.40
2024-02-03T04:50:15.099Z,64.50
2024-02-03T04:52:43.295Z,58.00
2024-02-03T04:55:11.755Z,58.40
2024-02-03T04:57:40.115Z,61.60
2024-02-03T05:00:10.138Z,58.50
2024-02-03T05:02:39.891Z,63.10
2024-02-03T05:05:08.439Z,65.50
2024-02-03T05:07:36.687Z,69.70
2024-02-03T05:10:08.568Z,68.50
2024-02-03T05:12:36.830Z,66.60
2024-02-03T05:15:06.113Z,60.10
2024-02-03T05:17:34.785Z,63.50
2024-02-03T05:20:03.513Z,64.90
2024-02-03T05:22:31.858Z,67.50
2024-02-03T05:25:00.288Z,64.20
2024-02-03T05:27:28.770Z,62.00
2024-02-03T05:29:56.977Z,61.00
2024-02-03T05:32:25.186Z,54.80
2024-02-03T05:34:53.671Z,51.90
2024-02-03T05:37:22.262Z,51.90
2024-02-03T05:39:50.511Z,51.50
2024-02-03T05:42:22.256Z,49.50
2024-02-03T05:44:52.298Z,50.10
2024-02-03T05:47:20.672Z,59.40
2024-02-03T05:49:49.322Z,55.80
2024-02-03T05:52:17.737Z,56.00
2024-02-03T05:54:46.356Z,48.80
2024-02-03T05:57:14.633Z,51.80
2024-02-03T05:59:50.924Z,54.00
2024-02-03T06:02:21.514Z,56.40
2024-02-03T06:04:51.383Z,55.20
2024-02-03T06:07:20.432Z,61.60
2024-02-03T06:12:16.936Z,55.10
2024-02-03T06:14:45.649Z,51.80
2024-02-03T06:17:14.676Z,55.80
2024-02-03T06:19:44.951Z,52.20
2024-02-03T06:22:13.328Z,57.30
2024-02-03T06:24:41.653Z,71.00
2024-02-03T06:27:10.337Z,67.30
2024-02-03T06:29:38.882Z,97.30
2024-02-03T06:32:07.582Z,114.80
2024-02-03T06:34:36.264Z,109.00
2024-02-03T06:37:05.719Z,94.10
2024-02-03T06:42:02.849Z,88.80
2024-02-03T06:44:31.497Z,98.70
2024-02-03T06:46:59.856Z,90.90
2024-02-03T06:49:28.746Z,93.60
2024-02-03T06:51:57.297Z,95.10
2024-02-03T06:54:25.546Z,86.40
2024-02-03T06:56:53.821Z,67.80
2024-02-03T06:59:22.188Z,80.30
2024-02-03T07:01:51.876Z,93.10
2024-02-03T07:04:20.873Z,91.70
2024-02-03T07:06:49.183Z,73.10
2024-02-03T07:09:17.642Z,81.50
2024-02-03T07:11:56.640Z,83.50
2024-02-03T07:14:31.840Z,76.20
2024-02-03T07:17:00.096Z,76.70
2024-02-03T07:19:29.624Z,70.80
2024-02-03T07:24:26.560Z,62.50
2024-02-03T07:26:54.776Z,61.00
2024-02-03T07:29:23.194Z,62.70
2024-02-03T07:31:59.814Z,74.90
2024-02-03T07:34:28.665Z,82.50
2024-02-03T07:36:57.737Z,73.50
2024-02-03T07:39:26.198Z,73.40
2024-02-03T07:41:54.523Z,70.50
2024-02-03T07:44:22.770Z,74.60
2024-02-03T07:46:50.989Z,59.90
2024-02-03T07:49:19.170Z,58.90
2024-02-03T07:51:47.497Z,64.90
2024-02-03T07:54:15.987Z,70.30
2024-02-03T07:56:44.643Z,62.90
2024-02-03T07:59:12.749Z,70.50
2024-02-03T08:04:09.701Z,66.00
2024-02-03T08:06:38.297Z,75.00
2024-02-03T08:09:06.666Z,91.60
2024-02-03T08:11:35.011Z,84.30
2024-02-03T08:14:03.301Z,91.70
2024-02-03T08:16:31.665Z,74.40
2024-02-03T08:19:00.113Z,76.00
2024-02-03T08:21:29.083Z,74.60
2024-02-03T08:23:57.567Z,62.00
2024-02-03T08:26:25.711Z,67.70
2024-02-03T08:28:53.865Z,64.20
2024-02-03T08:31:22.056Z,60.20
2024-02-03T08:33:50.421Z,62.10
2024-02-03T08:36:18.843Z,64.80
2024-02-03T08:38:47.266Z,59.30
2024-02-03T08:41:16.886Z,57.10
2024-02-03T08:43:45.589Z,65.80
2024-02-03T08:46:13.720Z,53.80
2024-02-03T08:48:41.944Z,60.20
2024-02-03T08:51:10.794Z,79.80
2024-02-03T08:53:38.981Z,54.00
2024-02-03T08:56:08.430Z,67.50
2024-02-03T08:58:36.868Z,63.50
2024-02-03T09:01:05.304Z,60.00
2024-02-03T09:03:33.565Z,65.30
2024-02-03T09:06:01.857Z,63.90
2024-02-03T09:08:30.046Z,63.10
2024-02-03T09:10:58.406Z,58.70
2024-02-03T09:13:27.264Z,55.10
2024-02-03T09:15:55.568Z,57.60
2024-02-03T09:18:24.229Z,56.30
2024-02-03T09:20:52.693Z,61.90
2024-02-03T09:23:20.781Z,63.00
2024-02-03T09:25:49.914Z,68.20
2024-02-03T09:30:46.986Z,75.70
2024-02-03T09:33:15.248Z,59.70
2024-02-03T09:35:43.620Z,56.40
2024-02-03T09:38:12.512Z,65.90
2024-02-03T09:40:40.818Z,63.40
2024-02-03T09:43:10.765Z,64.90
2024-02-03T09:45:39.613Z,58.60
2024-02-03T09:48:08.588Z,64.10
2024-02-03T09:50:37.394Z,57.00
2024-02-03T09:53:05.690Z,64.50
2024-02-03T09:55:34.175Z,66.80
2024-02-03T09:58:03.320Z,67.40
2024-02-03T10:00:33.485Z,61.30
2024-02-03T10:03:02.775Z,67.50
2024-02-03T10:05:32.591Z,72.60
2024-02-03T10:08:06.296Z,64.10
2024-02-03T10:13:13.024Z,67.80
2024-02-03T10:15:41.642Z,73.90
2024-02-03T10:18:09.974Z,73.30
2024-02-03T10:20:38.790Z,75.50
2024-02-03T10:23:08.423Z,76.10
2024-02-03T10:25:37.197Z,73.30
2024-02-03T10:28:07.261Z,78.10
2024-02-03T10:30:37.804Z,83.20
2024-02-03T10:33:07.995Z,82.40
2024-02-03T10:35:37.785Z,81.60
2024-02-03T10:38:06.112Z,80.30
2024-02-03T10:40:35.432Z,66.20
2024-02-03T10:43:08.778Z,67.60
2024-02-03T10:45:39.560Z,72.90
2024-02-03T10:48:17.148Z,60.10
2024-02-03T10:50:50.951Z,55.70
2024-02-03T10:53:33.290Z,58.30
2024-02-03T10:56:06.291Z,52.40
2024-02-03T10:58:34.961Z,64.20
2024-02-03T11:01:22.693Z,59.60
2024-02-03T11:03:53.326Z,55.90
2024-02-03T11:06:33.363Z,59.80
2024-02-03T11:09:14.550Z,57.40
2024-02-03T11:11:45.705Z,53.30
2024-02-03T11:14:16.894Z,54.50
2024-02-03T11:17:02.399Z,46.20
2024-02-03T11:19:33.677Z,49.80
2024-02-03T11:22:03.774Z,40.40
2024-02-03T11:24:34.488Z,37.30
2024-02-03T11:27:08.462Z,34.50
2024-02-03T11:29:38.353Z,42.00
2024-02-03T11:32:08.859Z,37.50
2024-02-03T11:34:39.024Z,40.60
2024-02-03T11:37:08.120Z,41.20
2024-02-03T11:39:38.196Z,40.70
2024-02-03T11:42:08.901Z,39.00
2024-02-03T11:44:55.458Z,49.90
2024-02-03T11:47:24.160Z,40.20
2024-02-03T11:49:54.018Z,44.20
2024-02-03T11:52:26.160Z,42.40
2024-02-03T11:54:55.686Z,41.60
2024-02-03T12:00:06.915Z,44.50
2024-02-03T12:02:36.462Z,46.30
2024-02-03T12:05:05.589Z,43.20
2024-02-03T12:07:35.014Z,45.50
2024-02-03T12:10:05.398Z,46.80
2024-02-03T12:12:36.286Z,42.20
2024-02-03T12:15:07.718Z,36.50
2024-02-03T12:17:36.571Z,40.70
2024-02-03T12:20:20.617Z,35.20
2024-02-03T12:22:49.671Z,45.80
2024-02-03T12:25:18.180Z,51.00
2024-02-03T12:27:47.014Z,42.10
2024-02-03T12:30:23.416Z,47.50
2024-02-03T12:32:52.479Z,42.20
2024-02-03T12:35:20.849Z,47.90
2024-02-03T12:37:49.112Z,43.00
2024-02-03T12:40:17.794Z,48.70
2024-02-03T12:42:46.328Z,47.20
2024-02-03T12:45:14.489Z,44.20
2024-02-03T12:47:43.469Z,47.40
2024-02-03T12:50:12.138Z,44.10
2024-02-03T12:52:40.643Z,45.60
2024-02-03T12:55:09.802Z,43.30
2024-02-03T12:57:38.958Z,41.90
2024-02-03T13:00:08.183Z,46.30
2024-02-03T13:05:04.922Z,40.50
2024-02-03T13:07:33.097Z,40.20
2024-02-03T13:10:01.501Z,41.90
2024-02-03T13:12:30.063Z,37.20
2024-02-03T13:14:58.329Z,38.00
2024-02-03T13:17:27.934Z,30.30
2024-02-03T13:19:56.564Z,28.20
2024-02-03T13:22:25.268Z,33.50
2024-02-03T13:24:53.601Z,38.00
2024-02-03T13:27:22.102Z,54.60
2024-02-03T13:29:50.742Z,46.80
2024-02-03T13:32:18.924Z,41.90
2024-02-03T13:34:47.275Z,31.60
2024-02-03T13:37:16.557Z,35.20
2024-02-03T13:39:45.429Z,35.10
2024-02-03T13:42:14.648Z,34.30
2024-02-03T13:44:43.016Z,33.60
2024-02-03T13:47:11.602Z,48.10
2024-02-03T13:49:40.480Z,37.50
2024-02-03T13:52:09.541Z,46.60
2024-02-03T13:54:38.004Z,40.50
2024-02-03T13:57:06.387Z,40.60
2024-02-03T13:59:34.457Z,43.40
2024-02-03T14:02:03.099Z,43.10
2024-02-03T14:04:31.512Z,41.60
2024-02-03T14:07:02.963Z,42.40
2024-02-03T14:09:31.345Z,42.40
2024-02-03T14:11:59.966Z,41.30
2024-02-03T14:14:28.785Z,44.30
2024-02-03T14:16:56.928Z,38.40
2024-02-03T14:19:25.602Z,37.40
2024-02-03T14:21:54.449Z,37.90
2024-02-03T14:24:23.777Z,38.90
2024-02-03T14:26:51.921Z,39.30
2024-02-03T14:29:21.761Z,45.30
2024-02-03T14:31:49.868Z,42.00
2024-02-03T14:34:18.580Z,35.20
2024-02-03T14:36:47.173Z,38.90
2024-02-03T14:39:20.380Z,42.40
2024-02-03T14:41:49.042Z,47.50
2024-02-03T14:44:17.829Z,41.50
2024-02-03T14:46:46.388Z,43.80
2024-02-03T14:49:14.734Z,42.60
2024-02-03T14:51:43.767Z,43.40
2024-02-03T14:54:13.225Z,39.90
2024-02-03T14:56:41.644Z,36.30
2024-02-03T14:59:09.956Z,44.10
2024-02-03T15:01:38.154Z,40.20
2024-02-03T15:04:08.901Z,36.50
2024-02-03T15:06:38.529Z,39.10
2024-02-03T15:09:09.108Z,33.40
2024-02-03T15:11:37.495Z,44.80
2024-02-03T15:14:05.915Z,39.10
2024-02-03T15:16:34.135Z,44.70
2024-02-03T15:19:02.670Z,42.50
2024-02-03T15:21:31.340Z,42.40
2024-02-03T15:23:59.689Z,39.30
2024-02-03T15:26:27.922Z,39.20
2024-02-03T15:28:56.460Z,38.10
2024-02-03T15:31:26.925Z,35.80
2024-02-03T15:33:55.322Z,31.80
2024-02-03T15:36:23.666Z,39.90
2024-02-03T15:38:52.102Z,40.70
2024-02-03T15:41:20.588Z,42.70
2024-02-03T15:43:49.024Z,40.60
2024-02-03T15:46:18.130Z,34.40
2024-02-03T15:48:46.786Z,37.60
2024-02-03T15:51:14.992Z,32.20
2024-02-03T15:53:43.175Z,37.70
2024-02-03T15:56:11.389Z,39.50
2024-02-03T15:58:39.936Z,35.50
2024-02-03T16:01:08.186Z,37.70
2024-02-03T16:03:37.370Z,33.90
2024-02-03T16:06:06.501Z,37.50
2024-02-03T16:08:34.689Z,35.90
2024-02-03T16:11:03.249Z,35.10
2024-02-03T16:13:31.400Z,43.90
2024-02-03T16:16:00.075Z,44.60
2024-02-03T16:18:28.863Z,48.70
2024-02-03T16:20:57.148Z,42.90
2024-02-03T16:23:25.343Z,42.60
2024-02-03T16:25:53.784Z,46.30
2024-02-03T16:28:21.959Z,40.70
2024-02-03T16:30:50.299Z,49.80
2024-02-03T16:33:19.126Z,43.30
2024-02-03T16:38:16.390Z,42.00
2024-02-03T16:40:44.624Z,47.10
2024-02-03T16:43:13.980Z,52.00
2024-02-03T16:45:43.399Z,46.80
2024-02-03T16:48:11.889Z,47.90
2024-02-03T16:50:50.426Z,50.20
2024-02-03T16:53:18.589Z,58.40
2024-02-03T16:55:47.038Z,72.90
2024-02-03T16:58:15.565Z,72.60
2024-02-03T17:00:51.492Z,66.40
2024-02-03T17:03:19.864Z,62.30
2024-02-03T17:05:49.430Z,56.90
2024-02-03T17:08:19.299Z,65.90
2024-02-03T17:10:48.029Z,67.00
2024-02-03T17:13:16.125Z,65.80
2024-02-03T17:15:44.406Z,67.90
2024-02-03T17:18:12.593Z,64.60
2024-02-03T17:20:41.207Z,80.10
2024-02-03T17:23:09.666Z,66.10
2024-02-03T17:25:38.155Z,76.40
2024-02-03T17:28:06.959Z,70.40
2024-02-03T17:30:36.712Z,75.80
2024-02-03T17:33:05.401Z,71.00
2024-02-03T17:35:34.032Z,70.00
2024-02-03T17:38:02.271Z,62.90
2024-02-03T17:40:30.686Z,72.00
2024-02-03T17:43:05.821Z,62.10
2024-02-03T17:45:34.046Z,68.30
2024-02-03T17:48:02.318Z,67.50
2024-02-03T17:50:32.108Z,72.00
2024-02-03T17:53:01.637Z,63.70
2024-02-03T17:55:32.524Z,68.40
2024-02-03T17:58:00.766Z,66.50
2024-02-03T18:00:29.022Z,70.40
2024-02-03T18:02:57.173Z,68.00
2024-02-03T18:05:25.631Z,60.40
2024-02-03T18:07:53.838Z,65.70
2024-02-03T18:10:21.926Z,60.50
2024-02-03T18:12:50.617Z,68.10
2024-02-03T18:15:20.921Z,68.80
2024-02-03T18:17:49.261Z,75.00
2024-02-03T18:20:19.756Z,74.50
2024-02-03T18:22:48.668Z,68.10
2024-02-03T18:25:17.807Z,71.40
2024-02-03T18:27:46.305Z,80.10
2024-02-03T18:30:15.306Z,75.60
2024-02-03T18:32:45.313Z,82.00
2024-02-03T18:35:13.733Z,82.90
2024-02-03T18:37:41.846Z,89.00
2024-02-03T18:40:10.935Z,94.30
2024-02-03T18:42:43.901Z,94.70
2024-02-03T18:45:13.542Z,85.00
2024-02-03T18:47:42.193Z,90.70
2024-02-03T18:50:10.844Z,91.10
2024-02-03T18:52:39.330Z,85.40
2024-02-03T18:55:08.131Z,86.30
2024-02-03T18:57:37.543Z,95.70
2024-02-03T19:00:08.012Z,95.20
2024-02-03T19:02:36.254Z,82.80
2024-02-03T19:05:05.138Z,91.10
2024-02-03T19:07:33.458Z,96.90
2024-02-03T19:10:02.027Z,99.30
2024-02-03T19:12:31.288Z,105.80
2024-02-03T19:17:27.847Z,91.20
2024-02-03T19:19:56.615Z,84.10
2024-02-03T19:22:26.519Z,85.60
2024-02-03T19:24:54.971Z,90.40
2024-02-03T19:27:23.385Z,101.80
2024-02-03T19:29:51.500Z,92.70
2024-02-03T19:32:19.640Z,95.90
2024-02-03T19:34:48.656Z,88.50
2024-02-03T19:37:17.086Z,78.30
2024-02-03T19:39:54.860Z,90.80
2024-02-03T19:42:22.986Z,94.40
2024-02-03T19:44:51.300Z,97.60
2024-02-03T19:47:19.570Z,99.80
2024-02-03T19:49:48.079Z,85.70
2024-02-03T19:52:16.603Z,78.80
2024-02-03T19:54:45.320Z,79.20
2024-02-03T19:57:13.454Z,72.40
2024-02-03T19:59:41.735Z,76.20
2024-02-03T20:02:10.138Z,82.60
2024-02-03T20:04:39.990Z,80.00
2024-02-03T20:07:12.634Z,78.90
2024-02-03T20:09:41.484Z,84.40
2024-02-03T20:12:09.958Z,86.20
2024-02-03T20:14:40.017Z,86.60
2024-02-03T20:17:08.311Z,83.70
2024-02-03T20:19:36.739Z,81.10
2024-02-03T20:22:05.181Z,80.70
2024-02-03T20:24:36.183Z,84.40
2024-02-03T20:27:05.552Z,79.40
2024-02-03T20:29:33.919Z,79.60
2024-02-03T20:32:03.079Z,85.10
2024-02-03T20:34:31.453Z,79.00
2024-02-03T20:37:01.138Z,86.80
2024-02-03T20:39:29.712Z,79.30
2024-02-03T20:41:57.919Z,72.50
2024-02-03T20:44:26.491Z,72.20
2024-02-03T20:46:56.533Z,77.10
2024-02-03T20:49:27.105Z,82.10
2024-02-03T20:51:55.371Z,81.60
2024-02-03T20:54:23.561Z,80.00
2024-02-03T20:56:51.962Z,82.80
2024-02-03T20:59:20.287Z,76.00
2024-02-03T21:01:48.642Z,82.30
2024-02-03T21:04:17.473Z,75.50
2024-02-03T21:06:46.393Z,74.70
2024-02-03T21:09:15.944Z,83.40
2024-02-03T21:11:48.285Z,85.50
2024-02-03T21:14:17.170Z,79.90
2024-02-03T21:16:45.422Z,93.30
2024-02-03T21:19:14.222Z,81.80
2024-02-03T21:21:43.286Z,91.80
2024-02-03T21:24:11.740Z,88.20
2024-02-03T21:26:40.529Z,80.80
2024-02-03T21:29:08.601Z,81.00
2024-02-03T21:31:37.101Z,83.60
2024-02-03T21:34:05.485Z,83.90
2024-02-03T21:36:33.640Z,80.30
2024-02-03T21:39:02.095Z,83.30
2024-02-03T21:41:30.293Z,83.90
2024-02-03T21:43:58.933Z,80.50
2024-02-03T21:46:27.336Z,85.20
2024-02-03T21:48:55.690Z,73.80
2024-02-03T21:51:24.286Z,76.20
2024-02-03T21:53:52.549Z,77.10
2024-02-03T21:56:21.903Z,69.50
2024-02-03T21:58:50.165Z,82.70
2024-02-03T22:01:18.996Z,76.50
2024-02-03T22:03:49.589Z,79.20
2024-02-03T22:06:23.696Z,85.60
2024-02-03T22:08:52.225Z,85.60
2024-02-03T22:11:20.629Z,86.50
2024-02-03T22:13:49.259Z,84.80
2024-02-03T22:16:17.398Z,86.90
2024-02-03T22:18:46.231Z,84.10
2024-02-03T22:21:15.535Z,73.30
2024-02-03T22:23:45.480Z,84.90
2024-02-03T22:26:15.194Z,94.30
2024-02-03T22:28:43.471Z,82.20
2024-02-03T22:31:12.009Z,95.80
2024-02-03T22:33:40.237Z,91.40
2024-02-03T22:36:09.745Z,88.50
2024-02-03T22:38:38.056Z,85.80
2024-02-03T22:41:06.228Z,91.30
2024-02-03T22:43:34.568Z,95.20
2024-02-03T22:46:03.347Z,90.10
2024-02-03T22:48:31.906Z,97.60
2024-02-03T22:51:00.642Z,93.30
2024-02-03T22:53:29.195Z,93.20
2024-02-03T22:55:57.594Z,82.40
2024-02-03T22:58:25.851Z,93.60
2024-02-03T23:00:57.505Z,93.10
2024-02-03T23:03:25.883Z,92.00
2024-02-03T23:05:54.758Z,87.40
2024-02-03T23:08:23.090Z,90.60
2024-02-03T23:10:51.286Z,85.30
2024-02-03T23:13:19.817Z,84.40
2024-02-03T23:15:49.641Z,91.30
2024-02-03T23:18:18.319Z,89.80
2024-02-03T23:20:46.894Z,96.40
2024-02-03T23:23:15.592Z,87.90
2024-02-03T23:25:43.889Z,87.70
2024-02-03T23:28:12.140Z,88.00
2024-02-03T23:30:40.316Z,88.50
2024-02-03T23:33:08.730Z,89.60
2024-02-03T23:35:37.556Z,85.30
2024-02-03T23:38:05.778Z,88.30
2024-02-03T23:40:34.310Z,82.20
2024-02-03T23:43:02.623Z,85.20
2024-02-03T23:45:30.860Z,84.00
2024-02-03T23:47:59.352Z,87.90
2024-02-03T23:50:27.928Z,90.40
2024-02-03T23:52:56.568Z,94.20
2024-02-03T23:55:24.937Z,98.10
2024-02-03T23:57:53.294Z,88.90
